sensor_id;sensor_type;location;lat;lon;timestamp;pressure;altitude;pressure_sealevel;temperature;humidity
43312;BME280;30041;48.300;16.352;2023-06-04T00:00:34;99933.94;;;24.85;39.95
43312;BME280;30041;48.300;16.352;2023-06-04T00:03:00;99936.38;;;24.86;39.79
43312;BME280;30041;48.300;16.352;2023-06-04T00:05:26;99932.84;;;24.86;39.99
43312;BME280;30041;48.300;16.352;2023-06-04T00:07:52;99930.97;;;24.86;40.04
43312;BME280;30041;48.300;16.352;2023-06-04T00:10:18;99931.78;;;24.87;39.95
43312;BME280;30041;48.300;16.352;2023-06-04T00:12:44;99930.72;;;24.88;40.06
43312;BME280;30041;48.300;16.352;2023-06-04T00:15:12;99920.94;;;24.87;39.97
43312;BME280;30041;48.300;16.352;2023-06-04T00:17:41;99922.59;;;24.88;40.21
43312;BME280;30041;48.300;16.352;2023-06-04T00:20:08;99923.16;;;24.90;39.93
43312;BME280;30041;48.300;16.352;2023-06-04T00:22:34;99923.16;;;24.90;40.11
43312;BME280;30041;48.300;16.352;2023-06-04T00:25:00;99917.47;;;24.92;39.91
43312;BME280;30041;48.300;16.352;2023-06-04T00:27:26;99919.34;;;24.91;39.99
43312;BME280;30041;48.300;16.352;2023-06-04T00:29:52;99916.41;;;24.93;39.98
43312;BME280;30041;48.300;16.352;2023-06-04T00:32:18;99921.56;;;24.94;39.96
43312;BME280;30041;48.300;16.352;2023-06-04T00:34:50;99919.94;;;24.93;40.04
43312;BME280;30041;48.300;16.352;2023-06-04T00:37:16;99917.78;;;24.95;40.01
43312;BME280;30041;48.300;16.352;2023-06-04T00:39:42;99912.34;;;24.95;39.94
43312;BME280;30041;48.300;16.352;2023-06-04T00:42:11;99915.63;;;24.97;40.28
43312;BME280;30041;48.300;16.352;2023-06-04T00:44:40;99914.81;;;24.97;40.03
43312;BME280;30041;48.300;16.352;2023-06-04T00:47:06;99914.56;;;24.98;40.04
43312;BME280;30041;48.300;16.352;2023-06-04T00:49:32;99915.63;;;24.97;40.17
43312;BME280;30041;48.300;16.352;2023-06-04T00:51:57;99918.09;;;24.99;40.01
43312;BME280;30041;48.300;16.352;2023-06-04T00:54:24;99908.06;;;24.99;39.94
43312;BME280;30041;48.300;16.352;2023-06-04T00:56:50;99914.06;;;25.01;40.11
43312;BME280;30041;48.300;16.352;2023-06-04T00:59:17;99916.78;;;25.01;40.34
43312;BME280;30041;48.300;16.352;2023-06-04T01:02:02;99905.91;;;25.01;40.25
43312;BME280;30041;48.300;16.352;2023-06-04T01:04:44;99895.06;;;25.01;40.16
43312;BME280;30041;48.300;16.352;2023-06-04T01:07:13;99900.25;;;25.03;40.27
43312;BME280;30041;48.300;16.352;2023-06-04T01:09:39;99899.41;;;25.02;40.00
43312;BME280;30041;48.300;16.352;2023-06-04T01:12:07;99911.91;;;25.03;40.38
43312;BME280;30041;48.300;16.352;2023-06-04T01:14:33;99910.00;;;25.04;40.18
43312;BME280;30041;48.300;16.352;2023-06-04T01:19:51;99900.78;;;25.05;40.18
43312;BME280;30041;48.300;16.352;2023-06-04T01:25:39;99906.22;;;25.05;40.32
43312;BME280;30041;48.300;16.352;2023-06-04T01:28:07;99904.06;;;25.07;40.11
43312;BME280;30041;48.300;16.352;2023-06-04T01:30:35;99907.34;;;25.09;40.19
43312;BME280;30041;48.300;16.352;2023-06-04T01:33:02;99907.34;;;25.09;40.04
43312;BME280;30041;48.300;16.352;2023-06-04T01:35:36;99901.13;;;25.09;40.28
43312;BME280;30041;48.300;16.352;2023-06-04T01:38:02;99902.75;;;25.10;40.26
43312;BME280;30041;48.300;16.352;2023-06-04T01:40:28;99900.88;;;25.10;40.55
43312;BME280;30041;48.300;16.352;2023-06-04T01:42:55;99898.97;;;25.11;40.15
43312;BME280;30041;48.300;16.352;2023-06-04T01:45:26;99898.97;;;25.11;40.58
43312;BME280;30041;48.300;16.352;2023-06-04T01:47:52;99899.78;;;25.11;40.13
43312;BME280;30041;48.300;16.352;2023-06-04T01:50:19;99891.41;;;25.13;40.30
43312;BME280;30041;48.300;16.352;2023-06-04T01:52:45;99892.44;;;25.12;40.38
43312;BME280;30041;48.300;16.352;2023-06-04T01:55:13;99902.00;;;25.14;40.30
43312;BME280;30041;48.300;16.352;2023-06-04T01:57:40;99903.88;;;25.14;40.47
43312;BME280;30041;48.300;16.352;2023-06-04T02:00:12;99899.28;;;25.14;40.32
43312;BME280;30041;48.300;16.352;2023-06-04T02:02:44;99908.81;;;25.17;40.33
43312;BME280;30041;48.300;16.352;2023-06-04T02:05:13;99901.72;;;25.16;40.31
43312;BME280;30041;48.300;16.352;2023-06-04T02:07:40;99898.75;;;25.17;40.35
43312;BME280;30041;48.300;16.352;2023-06-04T02:12:38;99898.75;;;25.17;40.33
43312;BME280;30041;48.300;16.352;2023-06-04T02:15:05;99902.06;;;25.19;40.32
43312;BME280;30041;48.300;16.352;2023-06-04T02:17:34;99907.50;;;25.19;40.41
43312;BME280;30041;48.300;16.352;2023-06-04T02:20:07;99895.56;;;25.20;40.70
43312;BME280;30041;48.300;16.352;2023-06-04T02:22:33;99910.78;;;25.21;40.41
43312;BME280;30041;48.300;16.352;2023-06-04T02:24:59;99911.84;;;25.20;40.40
43312;BME280;30041;48.300;16.352;2023-06-04T02:27:25;99916.19;;;25.21;40.27
43312;BME280;30041;48.300;16.352;2023-06-04T02:29:53;99913.25;;;25.23;40.41
43312;BME280;30041;48.300;16.352;2023-06-04T02:32:19;99907.81;;;25.23;40.46
43312;BME280;30041;48.300;16.352;2023-06-04T02:34:48;99912.41;;;25.22;40.26
43312;BME280;30041;48.300;16.352;2023-06-04T02:37:14;99900.50;;;25.23;40.40
43312;BME280;30041;48.300;16.352;2023-06-04T02:39:39;99901.31;;;25.24;40.60
43312;BME280;30041;48.300;16.352;2023-06-04T02:42:08;99909.19;;;25.25;40.55
43312;BME280;30041;48.300;16.352;2023-06-04T02:44:37;99897.50;;;25.25;40.29
43312;BME280;30041;48.300;16.352;2023-06-04T02:47:06;99895.63;;;25.25;40.53
43312;BME280;30041;48.300;16.352;2023-06-04T02:49:32;99897.00;;;25.28;40.21
43312;BME280;30041;48.300;16.352;2023-06-04T02:51:58;99904.34;;;25.27;40.44
43312;BME280;30041;48.300;16.352;2023-06-04T02:57:10;99902.44;;;25.28;40.58
43312;BME280;30041;48.300;16.352;2023-06-04T02:59:36;99897.81;;;25.29;40.30
43312;BME280;30041;48.300;16.352;2023-06-04T03:02:03;99898.63;;;25.29;40.72
43312;BME280;30041;48.300;16.352;2023-06-04T03:04:29;99898.63;;;25.29;40.38
43312;BME280;30041;48.300;16.352;2023-06-04T03:06:55;99895.91;;;25.29;40.45
43312;BME280;30041;48.300;16.352;2023-06-04T03:09:22;99901.09;;;25.31;40.55
43312;BME280;30041;48.300;16.352;2023-06-04T03:11:48;99897.56;;;25.30;40.51
43312;BME280;30041;48.300;16.352;2023-06-04T03:14:15;99903.81;;;25.31;40.51
43312;BME280;30041;48.300;16.352;2023-06-04T03:16:41;99903.00;;;25.30;40.30
43312;BME280;30041;48.300;16.352;2023-06-04T03:19:07;99903.00;;;25.30;40.48
43312;BME280;30041;48.300;16.352;2023-06-04T03:21:34;99909.22;;;25.31;40.61
43312;BME280;30041;48.300;16.352;2023-06-04T03:24:00;99914.41;;;25.32;40.42
43312;BME280;30041;48.300;16.352;2023-06-04T03:26:29;99915.22;;;25.33;40.50
43312;BME280;30041;48.300;16.352;2023-06-04T03:28:55;99923.38;;;25.33;40.58
43312;BME280;30041;48.300;16.352;2023-06-04T03:31:21;99927.13;;;25.32;40.57
43312;BME280;30041;48.300;16.352;2023-06-04T03:33:47;99933.41;;;25.32;40.38
43312;BME280;30041;48.300;16.352;2023-06-04T03:36:13;99937.50;;;25.35;40.48
43312;BME280;30041;48.300;16.352;2023-06-04T03:38:39;99933.97;;;25.34;40.68
43312;BME280;30041;48.300;16.352;2023-06-04T03:41:11;99936.41;;;25.36;40.46
43312;BME280;30041;48.300;16.352;2023-06-04T03:43:39;99936.41;;;25.36;40.47
43312;BME280;30041;48.300;16.352;2023-06-04T03:46:05;99932.63;;;25.37;40.41
43312;BME280;30041;48.300;16.352;2023-06-04T03:48:32;99940.78;;;25.37;40.62
43312;BME280;30041;48.300;16.352;2023-06-04T03:50:58;99936.97;;;25.38;40.58
43312;BME280;30041;48.300;16.352;2023-06-04T03:53:24;99944.28;;;25.37;40.55
43312;BME280;30041;48.300;16.352;2023-06-04T03:55:50;99941.59;;;25.37;40.58
43312;BME280;30041;48.300;16.352;2023-06-04T03:58:19;99943.22;;;25.38;40.37
43312;BME280;30041;48.300;16.352;2023-06-04T04:00:45;99939.44;;;25.39;40.52
43312;BME280;30041;48.300;16.352;2023-06-04T04:03:11;99941.34;;;25.39;40.61
43312;BME280;30041;48.300;16.352;2023-06-04T04:05:38;99935.91;;;25.39;40.68
43312;BME280;30041;48.300;16.352;2023-06-04T04:08:04;99942.16;;;25.39;40.73
43312;BME280;30041;48.300;16.352;2023-06-04T04:10:30;99938.34;;;25.40;40.63
43312;BME280;30041;48.300;16.352;2023-06-04T04:12:59;99939.19;;;25.41;40.66
43312;BME280;30041;48.300;16.352;2023-06-04T04:15:28;99943.53;;;25.42;40.50
43312;BME280;30041;48.300;16.352;2023-06-04T04:17:55;99936.47;;;25.41;40.67
43312;BME280;30041;48.300;16.352;2023-06-04T04:20:21;99940.56;;;25.43;40.56
43312;BME280;30041;48.300;16.352;2023-06-04T04:22:47;99943.84;;;25.45;40.60
43312;BME280;30041;48.300;16.352;2023-06-04T04:25:13;99941.38;;;25.44;40.68
43312;BME280;30041;48.300;16.352;2023-06-04T04:27:42;99942.44;;;25.43;40.68
43312;BME280;30041;48.300;16.352;2023-06-04T04:30:09;99946.81;;;25.44;40.68
43312;BME280;30041;48.300;16.352;2023-06-04T04:32:35;99949.28;;;25.45;40.80
43312;BME280;30041;48.300;16.352;2023-06-04T04:35:01;99946.81;;;25.44;40.57
43312;BME280;30041;48.300;16.352;2023-06-04T04:37:30;99946.81;;;25.44;40.79
43312;BME280;30041;48.300;16.352;2023-06-04T04:39:56;99952.22;;;25.44;40.69
43312;BME280;30041;48.300;16.352;2023-06-04T04:42:22;99953.84;;;25.45;40.62
43312;BME280;30041;48.300;16.352;2023-06-04T04:44:48;99957.13;;;25.47;40.53
43312;BME280;30041;48.300;16.352;2023-06-04T04:47:17;99956.31;;;25.46;40.80
43312;BME280;30041;48.300;16.352;2023-06-04T04:49:44;99953.38;;;25.48;40.72
43312;BME280;30041;48.300;16.352;2023-06-04T04:52:09;99955.25;;;25.47;40.63
43312;BME280;30041;48.300;16.352;2023-06-04T04:54:35;99950.66;;;25.21;40.73
43312;BME280;30041;48.300;16.352;2023-06-04T04:57:01;99954.31;;;24.49;41.85
43312;BME280;30041;48.300;16.352;2023-06-04T04:59:27;99953.38;;;24.21;42.66
43312;BME280;30041;48.300;16.352;2023-06-04T05:01:54;99954.28;;;24.10;43.30
43312;BME280;30041;48.300;16.352;2023-06-04T05:04:20;99957.47;;;24.07;43.15
43312;BME280;30041;48.300;16.352;2023-06-04T05:06:45;99953.13;;;24.06;43.36
43312;BME280;30041;48.300;16.352;2023-06-04T05:09:11;99969.31;;;24.00;43.03
43312;BME280;30041;48.300;16.352;2023-06-04T05:11:37;99971.34;;;23.93;43.67
43312;BME280;30041;48.300;16.352;2023-06-04T05:14:03;99963.47;;;23.92;43.71
43312;BME280;30041;48.300;16.352;2023-06-04T05:16:29;99972.06;;;23.89;44.00
43312;BME280;30041;48.300;16.352;2023-06-04T05:18:55;99964.53;;;23.91;43.78
43312;BME280;30041;48.300;16.352;2023-06-04T05:21:20;99973.22;;;23.93;44.08
43312;BME280;30041;48.300;16.352;2023-06-04T05:23:46;99970.53;;;23.93;44.03
43312;BME280;30041;48.300;16.352;2023-06-04T05:26:12;99978.06;;;23.91;43.79
43312;BME280;30041;48.300;16.352;2023-06-04T05:28:39;99979.53;;;23.81;44.04
43312;BME280;30041;48.300;16.352;2023-06-04T05:31:05;99982.06;;;23.71;44.43
43312;BME280;30041;48.300;16.352;2023-06-04T05:33:31;99992.19;;;23.64;44.52
43312;BME280;30041;48.300;16.352;2023-06-04T05:35:57;99995.16;;;23.62;44.33
43312;BME280;30041;48.300;16.352;2023-06-04T05:38:26;99994.31;;;23.62;44.45
43312;BME280;30041;48.300;16.352;2023-06-04T05:40:55;99992.94;;;23.59;44.80
43312;BME280;30041;48.300;16.352;2023-06-04T05:43:22;100000.47;;;23.57;44.77
43312;BME280;30041;48.300;16.352;2023-06-04T05:45:48;99995.88;;;23.58;44.76
43312;BME280;30041;48.300;16.352;2023-06-04T05:48:14;100010.38;;;23.52;42.80
43312;BME280;30041;48.300;16.352;2023-06-04T05:50:40;100001.81;;;23.43;41.09
43312;BME280;30041;48.300;16.352;2023-06-04T05:53:06;100000.50;;;23.17;42.06
43312;BME280;30041;48.300;16.352;2023-06-04T05:55:34;100006.59;;;23.24;43.25
43312;BME280;30041;48.300;16.352;2023-06-04T05:58:00;99993.66;;;23.26;43.44
43312;BME280;30041;48.300;16.352;2023-06-04T06:00:26;99998.00;;;23.27;43.53
43312;BME280;30041;48.300;16.352;2023-06-04T06:02:52;100003.19;;;23.29;43.80
43312;BME280;30041;48.300;16.352;2023-06-04T06:05:19;100006.13;;;23.27;44.11
43312;BME280;30041;48.300;16.352;2023-06-04T06:07:46;100008.25;;;23.25;44.30
43312;BME280;30041;48.300;16.352;2023-06-04T06:10:12;100000.72;;;23.27;44.28
43312;BME280;30041;48.300;16.352;2023-06-04T06:12:38;100009.06;;;23.26;44.09
43312;BME280;30041;48.300;16.352;2023-06-04T06:15:05;100019.06;;;23.25;44.30
43312;BME280;30041;48.300;16.352;2023-06-04T06:17:32;100004.72;;;23.25;44.53
43312;BME280;30041;48.300;16.352;2023-06-04T06:19:58;100021.19;;;23.23;44.22
43312;BME280;30041;48.300;16.352;2023-06-04T06:22:24;100025.53;;;23.24;44.37
43312;BME280;30041;48.300;16.352;2023-06-04T06:24:55;100028.22;;;23.24;44.41
43312;BME280;30041;48.300;16.352;2023-06-04T06:27:22;100020.09;;;23.24;44.54
43312;BME280;30041;48.300;16.352;2023-06-04T06:29:48;100026.00;;;23.21;44.43
43312;BME280;30041;48.300;16.352;2023-06-04T06:32:16;100022.25;;;23.22;44.61
43312;BME280;30041;48.300;16.352;2023-06-04T06:34:42;100017.53;;;23.17;44.80
43312;BME280;30041;48.300;16.352;2023-06-04T06:37:09;100021.19;;;23.23;44.78
43312;BME280;30041;48.300;16.352;2023-06-04T06:39:35;100015.69;;;23.18;44.90
43312;BME280;30041;48.300;16.352;2023-06-04T06:42:01;100023.53;;;23.19;44.77
43312;BME280;30041;48.300;16.352;2023-06-04T06:44:27;100022.41;;;23.15;44.61
43312;BME280;30041;48.300;16.352;2023-06-04T06:46:53;100015.34;;;23.14;45.07
43312;BME280;30041;48.300;16.352;2023-06-04T06:49:19;100020.50;;;23.16;44.62
43312;BME280;30041;48.300;16.352;2023-06-04T06:51:44;100017.81;;;23.16;44.93
43312;BME280;30041;48.300;16.352;2023-06-04T06:54:11;100025.81;;;23.11;44.97
43312;BME280;30041;48.300;16.352;2023-06-04T06:56:40;100029.91;;;23.13;44.85
43312;BME280;30041;48.300;16.352;2023-06-04T06:59:06;100032.13;;;23.16;44.68
43312;BME280;30041;48.300;16.352;2023-06-04T07:01:32;100032.13;;;23.16;44.80
43312;BME280;30041;48.300;16.352;2023-06-04T07:03:58;100037.19;;;23.13;44.88
43312;BME280;30041;48.300;16.352;2023-06-04T07:06:24;100038.84;;;23.14;44.94
43312;BME280;30041;48.300;16.352;2023-06-04T07:08:50;100044.03;;;23.15;44.86
43312;BME280;30041;48.300;16.352;2023-06-04T07:11:16;100040.97;;;23.12;44.90
43312;BME280;30041;48.300;16.352;2023-06-04T07:13:42;100027.69;;;23.10;44.77
43312;BME280;30041;48.300;16.352;2023-06-04T07:16:09;100023.13;;;23.11;45.08
43312;BME280;30041;48.300;16.352;2023-06-04T07:18:35;100027.44;;;23.12;44.98
43312;BME280;30041;48.300;16.352;2023-06-04T07:21:01;100031.47;;;23.09;44.79
43312;BME280;30041;48.300;16.352;2023-06-04T07:23:30;100034.38;;;23.08;44.98
43312;BME280;30041;48.300;16.352;2023-06-04T07:26:01;100033.56;;;23.07;44.91
43312;BME280;30041;48.300;16.352;2023-06-04T07:28:27;100036.06;;;23.09;44.82
43312;BME280;30041;48.300;16.352;2023-06-04T07:30:53;100040.03;;;23.06;45.11
43312;BME280;30041;48.300;16.352;2023-06-04T07:33:19;100031.91;;;23.06;45.04
43312;BME280;30041;48.300;16.352;2023-06-04T07:35:45;100030.50;;;23.04;44.97
43312;BME280;30041;48.300;16.352;2023-06-04T07:38:10;100035.34;;;23.02;44.88
43312;BME280;30041;48.300;16.352;2023-06-04T07:40:36;100037.81;;;23.03;44.99
43312;BME280;30041;48.300;16.352;2023-06-04T07:43:02;100043.00;;;23.05;44.66
43312;BME280;30041;48.300;16.352;2023-06-04T07:45:28;100036.41;;;23.00;44.94
43312;BME280;30041;48.300;16.352;2023-06-04T07:47:55;100039.69;;;23.03;44.89
43312;BME280;30041;48.300;16.352;2023-06-04T07:50:20;100040.03;;;23.06;44.98
43312;BME280;30041;48.300;16.352;2023-06-04T07:52:46;100042.41;;;23.03;44.69
43312;BME280;30041;48.300;16.352;2023-06-04T07:55:12;100039.09;;;23.00;45.08
43312;BME280;30041;48.300;16.352;2023-06-04T07:57:38;100036.19;;;23.02;44.77
43312;BME280;30041;48.300;16.352;2023-06-04T08:00:05;100037.22;;;23.01;44.78
43312;BME280;30041;48.300;16.352;2023-06-04T08:02:31;100043.69;;;23.00;44.98
43312;BME280;30041;48.300;16.352;2023-06-04T08:04:57;100040.16;;;22.99;44.74
43312;BME280;30041;48.300;16.352;2023-06-04T08:07:23;100051.56;;;23.02;44.97
43312;BME280;30041;48.300;16.352;2023-06-04T08:09:52;100045.56;;;22.99;44.91
43312;BME280;30041;48.300;16.352;2023-06-04T08:12:18;100055.91;;;23.03;44.81
43312;BME280;30041;48.300;16.352;2023-06-04T08:14:47;100052.63;;;23.00;44.71
43312;BME280;30041;48.300;16.352;2023-06-04T08:17:12;100046.59;;;22.98;45.04
43312;BME280;30041;48.300;16.352;2023-06-04T08:19:47;100048.72;;;22.96;45.04
43312;BME280;30041;48.300;16.352;2023-06-04T08:22:13;100052.00;;;22.98;44.73
43312;BME280;30041;48.300;16.352;2023-06-04T08:24:39;100048.25;;;22.99;45.01
43312;BME280;30041;48.300;16.352;2023-06-04T08:27:05;100054.25;;;23.02;45.00
43312;BME280;30041;48.300;16.352;2023-06-04T08:29:34;100056.25;;;22.94;45.00
43312;BME280;30041;48.300;16.352;2023-06-04T08:32:00;100058.50;;;22.97;44.80
43312;BME280;30041;48.300;16.352;2023-06-04T08:34:26;100058.72;;;22.96;45.20
43312;BME280;30041;48.300;16.352;2023-06-04T08:36:52;100070.13;;;22.98;44.86
43312;BME280;30041;48.300;16.352;2023-06-04T08:39:21;100080.09;;;22.97;44.41
43312;BME280;30041;48.300;16.352;2023-06-04T08:41:56;100076.34;;;22.98;44.50
43312;BME280;30041;48.300;16.352;2023-06-04T08:44:27;100077.16;;;22.99;44.67
43312;BME280;30041;48.300;16.352;2023-06-04T08:46:54;100072.72;;;23.05;44.85
43312;BME280;30041;48.300;16.352;2023-06-04T08:49:27;100076.00;;;23.07;44.85
43312;BME280;30041;48.300;16.352;2023-06-04T08:51:55;100083.16;;;23.13;44.87
43312;BME280;30041;48.300;16.352;2023-06-04T08:54:22;100080.81;;;23.16;44.68
43312;BME280;30041;48.300;16.352;2023-06-04T08:56:48;100081.38;;;23.18;44.81
43312;BME280;30041;48.300;16.352;2023-06-04T08:59:15;100090.31;;;23.19;45.27
43312;BME280;30041;48.300;16.352;2023-06-04T09:01:43;100081.38;;;23.18;45.04
43312;BME280;30041;48.300;16.352;2023-06-04T09:04:10;100094.41;;;23.21;44.92
43312;BME280;30041;48.300;16.352;2023-06-04T09:06:42;100097.75;;;23.12;45.09
43312;BME280;30041;48.300;16.352;2023-06-04T09:09:09;100091.75;;;23.10;45.03
43312;BME280;30041;48.300;16.352;2023-06-04T09:11:45;100091.25;;;23.13;43.61
43312;BME280;30041;48.300;16.352;2023-06-04T09:14:14;100088.59;;;23.01;42.64
43312;BME280;30041;48.300;16.352;2023-06-04T09:16:58;100085.06;;;22.89;41.46
43312;BME280;30041;48.300;16.352;2023-06-04T09:19:28;100093.38;;;22.87;41.35
43312;BME280;30041;48.300;16.352;2023-06-04T09:21:58;100091.75;;;23.10;40.97
43312;BME280;30041;48.300;16.352;2023-06-04T09:24:37;100097.88;;;23.05;41.75
43312;BME280;30041;48.300;16.352;2023-06-04T09:27:18;100097.38;;;23.08;42.59
43312;BME280;30041;48.300;16.352;2023-06-04T09:29:54;100099.28;;;23.08;42.13
43312;BME280;30041;48.300;16.352;2023-06-04T09:32:27;100095.97;;;23.06;42.53
43312;BME280;30041;48.300;16.352;2023-06-04T09:35:12;100099.28;;;23.08;42.58
43312;BME280;30041;48.300;16.352;2023-06-04T09:37:40;100090.22;;;23.14;42.80
43312;BME280;30041;48.300;16.352;2023-06-04T09:40:07;100088.81;;;23.11;42.68
43312;BME280;30041;48.300;16.352;2023-06-04T09:42:47;100091.41;;;23.18;43.29
43312;BME280;30041;48.300;16.352;2023-06-04T09:45:26;100097.19;;;23.50;42.43
43312;BME280;30041;48.300;16.352;2023-06-04T09:47:53;100088.06;;;23.68;42.02
43312;BME280;30041;48.300;16.352;2023-06-04T09:50:25;100086.75;;;23.82;41.85
43312;BME280;30041;48.300;16.352;2023-06-04T09:52:54;100085.53;;;23.90;41.53
43312;BME280;30041;48.300;16.352;2023-06-04T09:55:27;100093.50;;;23.97;41.52
43312;BME280;30041;48.300;16.352;2023-06-04T09:57:56;100091.97;;;24.01;41.24
43312;BME280;30041;48.300;16.352;2023-06-04T10:00:26;100087.13;;;24.03;41.03
43312;BME280;30041;48.300;16.352;2023-06-04T10:02:59;100094.28;;;24.09;40.97
43312;BME280;30041;48.300;16.352;2023-06-04T10:05:32;100089.41;;;24.11;41.03
43312;BME280;30041;48.300;16.352;2023-06-04T10:08:01;100091.16;;;24.17;40.80
43312;BME280;30041;48.300;16.352;2023-06-04T10:10:29;100087.38;;;24.18;41.27
43312;BME280;30041;48.300;16.352;2023-06-04T10:13:18;100080.91;;;24.19;40.92
43312;BME280;30041;48.300;16.352;2023-06-04T10:15:46;100078.25;;;24.24;41.16
43312;BME280;30041;48.300;16.352;2023-06-04T10:18:14;100079.69;;;24.27;41.29
43312;BME280;30041;48.300;16.352;2023-06-04T10:20:43;100081.06;;;24.30;40.95
43312;BME280;30041;48.300;16.352;2023-06-04T10:23:10;100088.69;;;24.33;41.15
43312;BME280;30041;48.300;16.352;2023-06-04T10:25:36;100092.00;;;24.35;41.19
43312;BME280;30041;48.300;16.352;2023-06-04T10:28:03;100092.56;;;24.37;41.04
43312;BME280;30041;48.300;16.352;2023-06-04T10:30:30;100086.06;;;24.38;41.15
43312;BME280;30041;48.300;16.352;2023-06-04T10:33:02;100087.50;;;24.40;41.09
43312;BME280;30041;48.300;16.352;2023-06-04T10:35:33;100086.41;;;24.41;41.08
43312;BME280;30041;48.300;16.352;2023-06-04T10:38:19;100082.88;;;24.41;41.01
43312;BME280;30041;48.300;16.352;2023-06-04T10:40:45;100085.91;;;24.44;40.98
43312;BME280;30041;48.300;16.352;2023-06-04T10:43:13;100092.16;;;24.45;40.85
43312;BME280;30041;48.300;16.352;2023-06-04T10:45:42;100083.56;;;24.48;40.83
43312;BME280;30041;48.300;16.352;2023-06-04T10:48:09;100086.28;;;24.48;40.73
43312;BME280;30041;48.300;16.352;2023-06-04T10:50:51;100077.91;;;24.50;41.03
43312;BME280;30041;48.300;16.352;2023-06-04T10:53:20;100077.97;;;24.55;40.89
43312;BME280;30041;48.300;16.352;2023-06-04T10:55:47;100085.28;;;24.54;41.02
43312;BME280;30041;48.300;16.352;2023-06-04T10:58:13;100082.06;;;24.57;41.03
43312;BME280;30041;48.300;16.352;2023-06-04T11:00:41;100084.31;;;24.60;40.99
43312;BME280;30041;48.300;16.352;2023-06-04T11:03:11;100084.31;;;24.60;40.97
43312;BME280;30041;48.300;16.352;2023-06-04T11:05:44;100089.22;;;24.63;41.02
43312;BME280;30041;48.300;16.352;2023-06-04T11:08:12;100090.84;;;24.64;40.72
43312;BME280;30041;48.300;16.352;2023-06-04T11:10:49;100088.72;;;24.67;40.62
43312;BME280;30041;48.300;16.352;2023-06-04T11:13:28;100080.84;;;24.65;41.00
43312;BME280;30041;48.300;16.352;2023-06-04T11:15:54;100080.25;;;24.29;40.17
43312;BME280;30041;48.300;16.352;2023-06-04T11:18:21;100084.38;;;23.86;41.52
43312;BME280;30041;48.300;16.352;2023-06-04T11:20:49;100086.16;;;23.69;42.35
43312;BME280;30041;48.300;16.352;2023-06-04T11:23:16;100099.03;;;23.61;42.36
43312;BME280;30041;48.300;16.352;2023-06-04T11:25:43;100098.13;;;23.56;43.08
43312;BME280;30041;48.300;16.352;2023-06-04T11:28:16;100094.81;;;23.54;43.19
43312;BME280;30041;48.300;16.352;2023-06-04T11:30:42;100089.56;;;23.47;42.98
43312;BME280;30041;48.300;16.352;2023-06-04T11:33:08;100084.59;;;23.44;43.55
43312;BME280;30041;48.300;16.352;2023-06-04T11:35:42;100092.41;;;23.40;43.33
43312;BME280;30041;48.300;16.352;2023-06-04T11:38:09;100097.81;;;23.40;43.50
43312;BME280;30041;48.300;16.352;2023-06-04T11:40:35;100087.72;;;23.36;43.97
43312;BME280;30041;48.300;16.352;2023-06-04T11:43:01;100088.53;;;23.36;43.86
43312;BME280;30041;48.300;16.352;2023-06-04T11:45:30;100083.00;;;23.31;43.98
43312;BME280;30041;48.300;16.352;2023-06-04T11:48:00;100086.31;;;23.33;43.98
43312;BME280;30041;48.300;16.352;2023-06-04T11:50:28;100083.25;;;23.30;44.23
43312;BME280;30041;48.300;16.352;2023-06-04T11:52:54;100092.44;;;23.29;44.30
43312;BME280;30041;48.300;16.352;2023-06-04T11:55:20;100085.38;;;23.28;44.26
43312;BME280;30041;48.300;16.352;2023-06-04T11:57:47;100078.06;;;23.28;44.37
43312;BME280;30041;48.300;16.352;2023-06-04T12:00:15;100078.06;;;23.28;44.37
43312;BME280;30041;48.300;16.352;2023-06-04T12:02:55;100078.78;;;23.24;44.16
43312;BME280;30041;48.300;16.352;2023-06-04T12:05:23;100090.78;;;23.28;44.46
43312;BME280;30041;48.300;16.352;2023-06-04T12:08:04;100087.47;;;23.26;44.54
43312;BME280;30041;48.300;16.352;2023-06-04T12:10:39;100085.59;;;23.26;44.39
43312;BME280;30041;48.300;16.352;2023-06-04T12:13:06;100088.19;;;23.21;44.23
43312;BME280;30041;48.300;16.352;2023-06-04T12:15:32;100087.16;;;23.22;44.50
43312;BME280;30041;48.300;16.352;2023-06-04T12:17:58;100093.59;;;23.21;44.57
43312;BME280;30041;48.300;16.352;2023-06-04T12:20:40;100085.72;;;23.19;44.42
43312;BME280;30041;48.300;16.352;2023-06-04T12:23:07;100079.84;;;23.23;44.36
43312;BME280;30041;48.300;16.352;2023-06-04T12:25:34;100074.91;;;23.19;44.40
43312;BME280;30041;48.300;16.352;2023-06-04T12:28:00;100076.81;;;23.19;44.30
43312;BME280;30041;48.300;16.352;2023-06-04T12:30:44;100077.88;;;23.18;44.25
43312;BME280;30041;48.300;16.352;2023-06-04T12:33:12;100082.22;;;23.19;44.30
43312;BME280;30041;48.300;16.352;2023-06-04T12:35:38;100085.72;;;23.19;43.97
43312;BME280;30041;48.300;16.352;2023-06-04T12:38:07;100076.81;;;23.19;44.09
43312;BME280;30041;48.300;16.352;2023-06-04T12:40:33;100078.47;;;23.20;44.13
43312;BME280;30041;48.300;16.352;2023-06-04T12:43:02;100072.19;;;23.19;44.10
43312;BME280;30041;48.300;16.352;2023-06-04T12:45:28;100071.97;;;23.21;44.41
43312;BME280;30041;48.300;16.352;2023-06-04T12:47:57;100075.75;;;23.20;44.32
43312;BME280;30041;48.300;16.352;2023-06-04T12:50:23;100075.97;;;23.18;43.96
43312;BME280;30041;48.300;16.352;2023-06-04T12:52:49;100074.91;;;23.19;44.31
43312;BME280;30041;48.300;16.352;2023-06-04T12:55:15;100071.63;;;23.17;43.84
43312;BME280;30041;48.300;16.352;2023-06-04T12:57:41;100066.78;;;23.19;43.97
43312;BME280;30041;48.300;16.352;2023-06-04T13:00:07;100064.34;;;23.18;43.62